createdAt,value
2019-06-07T00:01:58.435Z,7.55
2019-06-07T00:04:29.049Z,6.60
2019-06-07T00:06:59.363Z,7.42
2019-06-07T00:09:29.577Z,7.83
2019-06-07T00:12:00.220Z,7.53
2019-06-07T00:14:30.579Z,7.53
2019-06-07T00:17:00.844Z,7.58
2019-06-07T00:19:31.121Z,8.10
2019-06-07T00:22:30.064Z,7.28
2019-06-07T00:24:33.278Z,8.45
2019-06-07T00:27:03.506Z,7.97
2019-06-07T00:29:33.831Z,7.83
2019-06-07T00:32:04.175Z,8.33
2019-06-07T00:34:35.696Z,8.18
2019-06-07T00:37:07.101Z,7.83
2019-06-07T00:39:37.551Z,8.85
2019-06-07T00:42:07.897Z,8.28
2019-06-07T00:44:38.109Z,7.97
2019-06-07T00:47:08.347Z,8.08
2019-06-07T00:49:41.355Z,8.83
2019-06-07T00:52:18.211Z,7.80
2019-06-07T00:54:43.244Z,8.60
2019-06-07T00:57:16.637Z,8.28
2019-06-07T00:59:45.590Z,8.78
2019-06-07T01:02:16.694Z,8.68
2019-06-07T01:04:48.156Z,8.10
2019-06-07T01:07:20.048Z,8.20
2019-06-07T01:09:51.010Z,8.30
2019-06-07T01:12:22.102Z,7.80
2019-06-07T01:14:55.517Z,7.90
2019-06-07T01:17:41.461Z,7.92
2019-06-07T01:19:59.918Z,8.38
2019-06-07T01:22:30.211Z,8.75
2019-06-07T01:25:00.453Z,8.65
2019-06-07T01:27:30.733Z,8.45
2019-06-07T01:30:01.643Z,8.23
2019-06-07T01:32:34.342Z,8.08
2019-06-07T01:35:08.712Z,7.85
2019-06-07T01:37:39.354Z,7.95
2019-06-07T01:40:13.307Z,8.80
2019-06-07T01:42:44.211Z,8.83
2019-06-07T01:45:17.918Z,8.40
2019-06-07T01:47:47.750Z,8.73
2019-06-07T01:50:23.336Z,8.85
2019-06-07T01:52:53.455Z,9.00
2019-06-07T01:55:31.699Z,9.33
2019-06-07T01:57:59.064Z,8.80
2019-06-07T02:00:32.692Z,8.58
2019-06-07T02:03:02.756Z,9.85
2019-06-07T02:05:39.110Z,9.25
2019-06-07T02:08:09.337Z,10.03
2019-06-07T02:10:39.642Z,9.15
2019-06-07T02:13:09.965Z,9.58
2019-06-07T02:15:40.464Z,9.68
2019-06-07T02:18:10.652Z,10.68
2019-06-07T02:20:40.897Z,10.82
2019-06-07T02:23:11.118Z,11.33
2019-06-07T02:25:48.594Z,11.35
2019-06-07T02:28:31.932Z,9.90
2019-06-07T02:30:58.862Z,10.78
2019-06-07T02:33:18.456Z,11.12
2019-06-07T02:35:48.772Z,10.93
2019-06-07T02:38:23.099Z,11.30
2019-06-07T02:40:55.052Z,11.20
2019-06-07T02:43:28.252Z,10.58
2019-06-07T02:46:21.272Z,10.98
2019-06-07T02:48:36.189Z,11.08
2019-06-07T02:51:02.261Z,11.35
2019-06-07T02:53:39.541Z,11.88
2019-06-07T02:56:37.856Z,10.95
2019-06-07T02:58:41.573Z,10.85
2019-06-07T03:01:10.137Z,11.18
2019-06-07T03:03:42.004Z,11.20
2019-06-07T03:06:14.740Z,10.35
2019-06-07T03:08:47.104Z,12.18
2019-06-07T03:11:18.863Z,12.05
2019-06-07T03:13:50.885Z,11.03
2019-06-07T03:16:26.258Z,11.60
2019-06-07T03:19:02.591Z,11.05
2019-06-07T03:21:36.420Z,11.53
2019-06-07T03:24:06.964Z,11.88
2019-06-07T03:27:31.444Z,12.10
2019-06-07T03:29:09.698Z,12.55
2019-06-07T03:31:46.680Z,12.75
2019-06-07T03:34:11.959Z,12.15
2019-06-07T03:36:54.545Z,12.23
2019-06-07T03:39:28.017Z,12.88
2019-06-07T03:42:06.408Z,12.65
2019-06-07T03:44:33.954Z,12.13
2019-06-07T03:47:04.453Z,12.93
2019-06-07T03:49:48.644Z,12.18
2019-06-07T03:52:20.862Z,11.97
2019-06-07T03:54:54.676Z,11.63
2019-06-07T03:57:25.463Z,12.60
2019-06-07T03:59:55.759Z,12.82
2019-06-07T04:02:30.357Z,13.25
2019-06-07T04:05:02.853Z,13.25
2019-06-07T04:07:36.067Z,14.05
2019-06-07T04:10:09.124Z,13.40
2019-06-07T04:15:12.282Z,13.50
2019-06-07T04:18:00.751Z,15.25
2019-06-07T04:20:14.774Z,14.18
2019-06-07T04:22:46.933Z,14.45
2019-06-07T04:25:17.747Z,14.25
2019-06-07T04:27:48.002Z,14.98
2019-06-07T04:30:43.890Z,14.50
2019-06-07T04:33:14.957Z,14.75
2019-06-07T04:35:45.990Z,15.40
2019-06-07T04:38:17.836Z,15.83
2019-06-07T04:40:49.293Z,15.90
2019-06-07T04:43:19.708Z,16.42
2019-06-07T04:45:51.672Z,14.98
2019-06-07T04:48:23.346Z,15.98
2019-06-07T04:50:55.840Z,17.35
2019-06-07T04:53:26.102Z,16.65
2019-06-07T04:55:56.798Z,16.62
2019-06-07T04:58:27.022Z,16.93
2019-06-07T05:01:03.211Z,17.77
2019-06-07T05:03:31.388Z,18.02
2019-06-07T05:06:01.867Z,17.90
2019-06-07T05:08:35.130Z,18.15
2019-06-07T05:11:04.173Z,17.55
2019-06-07T05:13:37.819Z,17.73
2019-06-07T05:16:06.912Z,18.82
2019-06-07T05:18:40.225Z,16.40
2019-06-07T05:21:09.116Z,18.12
2019-06-07T05:24:05.732Z,18.48
2019-06-07T05:26:11.293Z,17.62
2019-06-07T05:28:43.007Z,18.62
2019-06-07T05:31:13.970Z,18.15
2019-06-07T05:33:44.339Z,17.45
2019-06-07T05:36:14.566Z,17.65
2019-06-07T05:38:45.189Z,18.07
2019-06-07T05:41:16.993Z,17.87
2019-06-07T05:44:01.119Z,17.92
2019-06-07T05:46:20.885Z,16.62
2019-06-07T05:48:51.875Z,16.57
2019-06-07T05:51:22.286Z,16.25
2019-06-07T05:53:53.106Z,16.82
2019-06-07T05:56:23.822Z,17.82
2019-06-07T05:58:56.094Z,17.07
2019-06-07T06:01:55.739Z,16.27
2019-06-07T06:04:00.055Z,15.83
2019-06-07T06:06:30.656Z,16.12
2019-06-07T06:09:13.394Z,15.98
2019-06-07T06:11:45.885Z,16.20
2019-06-07T06:14:08.360Z,15.90
2019-06-07T06:16:39.762Z,16.23
2019-06-07T06:19:10.707Z,15.15
2019-06-07T06:21:44.844Z,15.45
2019-06-07T06:24:13.748Z,15.75
2019-06-07T06:26:51.337Z,16.20
2019-06-07T06:29:16.007Z,16.07
2019-06-07T06:32:35.814Z,15.20
2019-06-07T06:34:19.966Z,14.20
2019-06-07T06:36:52.401Z,14.28
2019-06-07T06:39:22.701Z,14.40
2019-06-07T06:42:00.843Z,14.80
2019-06-07T06:44:27.283Z,13.95
2019-06-07T06:46:58.676Z,13.58
2019-06-07T06:49:29.262Z,14.75
2019-06-07T06:51:59.845Z,14.03
2019-06-07T06:54:40.776Z,13.08
2019-06-07T06:57:19.045Z,12.88
2019-06-07T06:59:39.312Z,12.30
2019-06-07T07:02:09.011Z,12.70
2019-06-07T07:04:41.904Z,11.50
2019-06-07T07:07:12.428Z,11.10
2019-06-07T07:09:47.615Z,9.63
2019-06-07T07:12:16.183Z,8.80
2019-06-07T07:14:49.258Z,9.00
2019-06-07T07:17:20.279Z,9.68
2019-06-07T07:19:52.983Z,8.80
2019-06-07T07:22:23.988Z,8.60
2019-06-07T07:24:54.967Z,8.18
2019-06-07T07:27:25.503Z,8.18
2019-06-07T07:30:31.269Z,7.87
2019-06-07T07:32:28.394Z,8.00
2019-06-07T07:35:00.755Z,7.80
2019-06-07T07:40:53.548Z,8.05
2019-06-07T07:42:34.776Z,7.60
2019-06-07T07:45:06.626Z,6.97
2019-06-07T07:47:57.654Z,8.25
2019-06-07T07:50:10.227Z,8.20
2019-06-07T07:52:40.931Z,7.45
2019-06-07T07:55:11.834Z,7.25
2019-06-07T07:57:42.398Z,7.15
2019-06-07T08:00:49.440Z,7.37
2019-06-07T08:02:48.901Z,7.42
2019-06-07T08:05:28.819Z,7.33
2019-06-07T08:07:56.490Z,7.15
2019-06-07T08:10:24.449Z,6.60
2019-06-07T08:13:14.451Z,7.70
2019-06-07T08:15:27.017Z,6.43
2019-06-07T08:18:03.187Z,7.08
2019-06-07T08:20:29.699Z,7.37
2019-06-07T08:23:01.385Z,6.67
2019-06-07T08:25:32.450Z,6.50
2019-06-07T08:28:03.096Z,6.35
2019-06-07T08:30:55.059Z,6.03
2019-06-07T08:33:25.495Z,6.12
2019-06-07T08:36:06.154Z,6.17
2019-06-07T08:38:29.859Z,5.27
2019-06-07T08:40:42.171Z,5.45
2019-06-07T08:43:20.280Z,5.62
2019-06-07T08:45:44.921Z,5.83
2019-06-07T08:48:27.593Z,5.05
2019-06-07T08:50:47.071Z,5.23
2019-06-07T08:53:17.421Z,5.08
2019-06-07T08:55:48.137Z,5.35
2019-06-07T08:58:18.551Z,4.85
2019-06-07T09:00:49.384Z,5.00
2019-06-07T09:03:21.350Z,5.35
2019-06-07T09:05:54.200Z,5.33
2019-06-07T09:08:30.334Z,5.87
2019-06-07T09:10:58.917Z,6.55
2019-06-07T09:13:28.914Z,6.17
2019-06-07T09:16:04.929Z,5.97
2019-06-07T09:18:42.004Z,6.60
2019-06-07T09:21:07.695Z,7.70
2019-06-07T09:23:35.818Z,5.40
2019-06-07T09:26:15.975Z,5.80
2019-06-07T09:28:38.049Z,6.08
2019-06-07T09:31:10.389Z,5.70
2019-06-07T09:33:41.003Z,5.75
2019-06-07T09:36:13.156Z,5.75
2019-06-07T09:38:44.635Z,5.67
2019-06-07T09:41:15.300Z,6.25
2019-06-07T09:44:01.764Z,5.15
2019-06-07T09:46:18.738Z,5.70
2019-06-07T09:51:21.103Z,5.42
2019-06-07T09:53:52.037Z,6.08
2019-06-07T09:56:22.354Z,5.33
2019-06-07T09:58:55.343Z,5.80
2019-06-07T10:01:25.701Z,5.33
2019-06-07T10:04:02.317Z,5.40
2019-06-07T10:06:29.623Z,5.95
2019-06-07T10:10:04.668Z,5.85
2019-06-07T10:11:34.329Z,5.47
2019-06-07T10:14:06.838Z,6.17
2019-06-07T10:16:46.925Z,6.00
2019-06-07T10:19:10.993Z,6.03
2019-06-07T10:21:41.631Z,6.20
2019-06-07T10:24:11.971Z,6.03
2019-06-07T10:26:42.553Z,6.40
2019-06-07T10:29:12.869Z,6.25
2019-06-07T10:31:43.443Z,6.45
2019-06-07T10:34:13.784Z,6.17
2019-06-07T10:36:44.214Z,6.17
2019-06-07T10:39:14.479Z,5.97
2019-06-07T10:41:44.718Z,6.70
2019-06-07T10:44:15.324Z,6.17
2019-06-07T10:46:45.983Z,6.55
2019-06-07T10:49:16.649Z,6.28
2019-06-07T10:51:48.637Z,6.53
2019-06-07T10:54:26.697Z,6.22
2019-06-07T10:56:51.809Z,6.78
2019-06-07T10:59:22.164Z,5.95
2019-06-07T11:01:54.220Z,6.60
2019-06-07T11:04:24.938Z,6.37
2019-06-07T11:06:55.246Z,6.25
2019-06-07T11:09:25.856Z,6.12
2019-06-07T11:11:56.491Z,6.60
2019-06-07T11:14:27.894Z,6.22
2019-06-07T11:16:58.118Z,6.35
2019-06-07T11:19:28.742Z,7.83
2019-06-07T11:21:59.387Z,6.30
2019-06-07T11:24:29.736Z,7.42
2019-06-07T11:26:59.955Z,6.78
2019-06-07T11:29:30.555Z,6.58
2019-06-07T11:32:00.816Z,6.65
2019-06-07T11:34:31.044Z,6.20
2019-06-07T11:37:01.491Z,6.87
2019-06-07T11:39:32.025Z,7.17
2019-06-07T11:42:02.342Z,6.62
2019-06-07T11:44:32.577Z,7.12
2019-06-07T11:47:04.343Z,6.80
2019-06-07T11:49:35.109Z,7.20
2019-06-07T11:52:05.670Z,7.33
2019-06-07T11:54:36.511Z,6.97
2019-06-07T11:57:07.169Z,6.83
2019-06-07T11:59:37.675Z,7.30
2019-06-07T12:02:09.135Z,7.35
2019-06-07T12:04:39.964Z,7.15
2019-06-07T12:07:12.082Z,7.08
2019-06-07T12:09:55.520Z,7.17
2019-06-07T12:12:14.563Z,6.60
2019-06-07T12:14:46.516Z,6.40
2019-06-07T12:17:17.668Z,6.12
2019-06-07T12:19:48.362Z,6.05
2019-06-07T12:22:20.043Z,5.53
2019-06-07T12:24:51.047Z,5.83
2019-06-07T12:27:21.887Z,6.08
2019-06-07T12:29:52.172Z,5.80
2019-06-07T12:32:22.410Z,6.05
2019-06-07T12:34:53.033Z,5.75
2019-06-07T12:37:39.207Z,6.40
2019-06-07T12:39:55.632Z,5.65
2019-06-07T12:42:25.929Z,5.20
2019-06-07T12:44:56.151Z,5.65
2019-06-07T12:47:26.413Z,5.00
2019-06-07T12:49:57.014Z,5.25
2019-06-07T12:52:27.713Z,5.10
2019-06-07T12:54:58.166Z,5.20
2019-06-07T12:57:28.442Z,5.37
2019-06-07T12:59:58.713Z,5.08
2019-06-07T13:02:29.332Z,5.47
2019-06-07T13:05:04.322Z,5.53
2019-06-07T13:07:31.907Z,4.78
2019-06-07T13:10:02.497Z,5.70
2019-06-07T13:12:32.866Z,5.60
2019-06-07T13:15:04.411Z,5.45
2019-06-07T13:17:35.118Z,5.00
2019-06-07T13:20:09.299Z,5.37
2019-06-07T13:22:39.537Z,5.25
2019-06-07T13:25:10.352Z,5.00
2019-06-07T13:27:40.892Z,4.95
2019-06-07T13:30:13.447Z,4.87
2019-06-07T13:32:44.102Z,4.50
2019-06-07T13:35:18.114Z,4.50
2019-06-07T13:37:47.928Z,4.72
2019-06-07T13:40:19.700Z,4.85
2019-06-07T13:42:51.455Z,5.25
2019-06-07T13:45:22.391Z,4.80
2019-06-07T13:47:52.807Z,4.20
2019-06-07T13:50:24.260Z,4.40
2019-06-07T13:52:54.498Z,4.40
2019-06-07T13:55:25.878Z,4.87
2019-06-07T13:57:56.602Z,4.65
2019-06-07T14:00:26.899Z,5.00
2019-06-07T14:02:57.171Z,4.92
2019-06-07T14:05:29.045Z,4.90
2019-06-07T14:07:59.943Z,4.45
2019-06-07T14:10:30.340Z,5.37
2019-06-07T14:13:00.580Z,5.03
2019-06-07T14:15:33.986Z,4.50
2019-06-07T14:18:02.841Z,4.33
2019-06-07T14:20:34.745Z,4.70
2019-06-07T14:23:05.657Z,4.80
2019-06-07T14:25:36.179Z,5.47
2019-06-07T14:28:11.412Z,5.70
2019-06-07T14:30:39.488Z,5.35
2019-06-07T14:33:10.239Z,5.17
2019-06-07T14:35:40.571Z,6.37
2019-06-07T14:38:12.133Z,5.15
2019-06-07T14:40:42.800Z,4.95
2019-06-07T14:43:13.233Z,5.62
2019-06-07T14:45:44.092Z,4.92
2019-06-07T14:48:15.882Z,5.10
2019-06-07T14:50:46.393Z,5.05
2019-06-07T14:53:17.221Z,5.72
2019-06-07T14:55:48.278Z,5.20
2019-06-07T14:58:18.989Z,5.67
2019-06-07T15:00:49.390Z,5.20
2019-06-07T15:03:21.983Z,5.10
2019-06-07T15:05:52.276Z,6.30
2019-06-07T15:08:23.074Z,5.55
2019-06-07T15:10:53.724Z,5.62
2019-06-07T15:13:24.034Z,5.35
2019-06-07T15:15:54.345Z,5.78
2019-06-07T15:18:25.022Z,4.65
2019-06-07T15:20:55.697Z,5.17
2019-06-07T15:23:27.060Z,5.10
2019-06-07T15:25:57.579Z,4.70
2019-06-07T15:28:29.997Z,4.60
2019-06-07T15:31:00.261Z,5.30
2019-06-07T15:33:31.846Z,4.83
2019-06-07T15:36:03.344Z,5.20
2019-06-07T15:38:34.790Z,4.50
2019-06-07T15:41:05.542Z,4.75
2019-06-07T15:43:37.426Z,5.05
2019-06-07T15:46:08.146Z,4.95
2019-06-07T15:48:40.072Z,5.25
2019-06-07T15:51:10.981Z,5.15
2019-06-07T15:53:44.587Z,5.00
2019-06-07T15:56:14.568Z,5.40
2019-06-07T15:58:44.920Z,5.17
2019-06-07T16:01:15.883Z,4.90
2019-06-07T16:03:46.405Z,5.00
2019-06-07T16:06:19.473Z,5.80
2019-06-07T16:08:49.998Z,5.28
2019-06-07T16:11:20.687Z,5.87
2019-06-07T16:13:51.346Z,4.70
2019-06-07T16:16:22.107Z,5.80
2019-06-07T16:18:52.770Z,6.47
2019-06-07T16:21:23.098Z,5.30
2019-06-07T16:23:53.722Z,5.42
2019-06-07T16:26:25.629Z,5.28
2019-06-07T16:28:57.340Z,5.40
2019-06-07T16:31:28.527Z,5.78
2019-06-07T16:33:58.902Z,5.72
2019-06-07T16:36:29.587Z,6.58
2019-06-07T16:39:00.259Z,6.03
2019-06-07T16:41:31.104Z,6.03
2019-06-07T16:44:01.537Z,6.28
2019-06-07T16:46:32.487Z,6.05
2019-06-07T16:49:02.790Z,5.75
2019-06-07T16:51:33.153Z,7.37
2019-06-07T16:54:03.399Z,7.08
2019-06-07T16:56:33.666Z,6.35
2019-06-07T16:59:04.330Z,6.78
2019-06-07T17:01:34.732Z,6.33
2019-06-07T17:04:05.538Z,6.55
2019-06-07T17:06:35.847Z,6.30
2019-06-07T17:09:07.987Z,6.83
2019-06-07T17:11:38.403Z,6.50
2019-06-07T17:14:08.625Z,6.78
2019-06-07T17:16:39.034Z,7.42
2019-06-07T17:19:09.352Z,7.12
2019-06-07T17:21:40.944Z,7.60
2019-06-07T17:24:11.672Z,8.33
2019-06-07T17:26:43.360Z,8.08
2019-06-07T17:29:15.388Z,7.15
2019-06-07T17:31:46.430Z,8.00
2019-06-07T17:34:17.396Z,7.60
2019-06-07T17:36:48.759Z,7.78
2019-06-07T17:39:19.444Z,7.92
2019-06-07T17:42:00.004Z,7.97
2019-06-07T17:44:21.783Z,8.45
2019-06-07T17:46:52.368Z,8.75
2019-06-07T17:49:23.050Z,8.15
2019-06-07T17:51:54.545Z,8.00
2019-06-07T17:54:24.740Z,11.48
2019-06-07T17:56:54.989Z,10.03
2019-06-07T17:59:25.224Z,8.40
2019-06-07T18:02:13.594Z,9.73
2019-06-07T18:04:27.510Z,9.43
2019-06-07T18:06:58.299Z,10.05
2019-06-07T18:09:30.149Z,8.83
2019-06-07T18:12:00.493Z,9.65
2019-06-07T18:14:31.255Z,10.40
2019-06-07T18:17:02.122Z,10.63
2019-06-07T18:19:32.487Z,9.60
2019-06-07T18:22:02.770Z,11.10
2019-06-07T18:24:33.036Z,12.07
2019-06-07T18:27:06.974Z,11.68
2019-06-07T18:29:35.900Z,12.05
2019-06-07T18:32:06.137Z,11.97
2019-06-07T18:34:37.557Z,10.40
2019-06-07T18:37:07.932Z,10.43
2019-06-07T18:39:38.665Z,12.28
2019-06-07T18:42:09.348Z,10.98
2019-06-07T18:44:39.714Z,10.45
2019-06-07T18:47:10.337Z,10.25
2019-06-07T18:49:41.092Z,11.30
2019-06-07T18:52:16.845Z,11.93
2019-06-07T18:54:48.856Z,12.85
2019-06-07T18:57:19.287Z,13.75
2019-06-07T18:59:50.169Z,14.30
2019-06-07T19:02:20.716Z,14.05
2019-06-07T19:04:52.198Z,13.80
2019-06-07T19:07:24.377Z,18.10
2019-06-07T19:09:55.114Z,23.18
2019-06-07T19:12:25.794Z,22.65
2019-06-07T19:14:57.523Z,19.77
2019-06-07T19:17:28.496Z,12.63
2019-06-07T19:19:58.882Z,14.20
2019-06-07T19:22:29.485Z,15.20
2019-06-07T19:25:00.580Z,15.10
2019-06-07T19:27:33.177Z,16.62
2019-06-07T19:30:05.723Z,18.52
2019-06-07T19:32:36.322Z,24.05
2019-06-07T19:35:08.516Z,27.07
2019-06-07T19:37:38.810Z,20.50
2019-06-07T19:40:10.764Z,16.77
2019-06-07T19:42:41.089Z,16.25
2019-06-07T19:45:31.021Z,16.80
2019-06-07T19:47:44.288Z,16.62
2019-06-07T19:50:17.098Z,16.95
2019-06-07T19:52:47.347Z,18.35
2019-06-07T19:55:17.982Z,20.15
2019-06-07T19:57:50.136Z,19.15
2019-06-07T20:00:21.844Z,19.40
2019-06-07T20:02:52.155Z,18.27
2019-06-07T20:05:22.782Z,16.97
2019-06-07T20:07:54.455Z,15.88
2019-06-07T20:10:25.176Z,18.12
2019-06-07T20:12:56.580Z,17.55
2019-06-07T20:15:29.427Z,17.57
2019-06-07T20:17:59.507Z,18.50
2019-06-07T20:20:30.164Z,19.30
2019-06-07T20:23:01.040Z,19.73
2019-06-07T20:25:31.523Z,19.07
2019-06-07T20:28:03.373Z,19.80
2019-06-07T20:30:34.021Z,19.35
2019-06-07T20:33:05.991Z,18.55
2019-06-07T20:35:36.252Z,20.27
2019-06-07T20:38:06.538Z,22.20
2019-06-07T20:40:37.413Z,21.65
2019-06-07T20:43:08.250Z,18.32
2019-06-07T20:45:39.125Z,19.57
2019-06-07T20:48:09.785Z,19.60
2019-06-07T20:50:40.445Z,17.87
2019-06-07T20:53:10.797Z,19.15
2019-06-07T20:55:41.142Z,18.57
2019-06-07T20:58:11.440Z,18.77
2019-06-07T21:00:42.077Z,19.55
2019-06-07T21:03:13.023Z,19.05
2019-06-07T21:05:43.343Z,31.42
2019-06-07T21:08:13.596Z,19.75
2019-06-07T21:10:43.887Z,19.02
2019-06-07T21:13:14.148Z,19.07
2019-06-07T21:15:48.817Z,18.82
2019-06-07T21:18:19.855Z,19.90
2019-06-07T21:20:48.735Z,19.67
2019-06-07T21:23:19.049Z,19.10
2019-06-07T21:25:49.308Z,19.12
2019-06-07T21:28:19.724Z,19.92
2019-06-07T21:30:50.297Z,19.55
2019-06-07T21:33:20.979Z,19.85
2019-06-07T21:35:51.270Z,20.50
2019-06-07T21:38:21.576Z,20.70
2019-06-07T21:40:51.836Z,20.17
2019-06-07T21:43:22.268Z,21.15
2019-06-07T21:46:04.715Z,20.05
2019-06-07T21:48:24.994Z,19.35
2019-06-07T21:50:55.686Z,21.02
2019-06-07T21:53:26.358Z,20.77
2019-06-07T21:55:57.029Z,20.80
2019-06-07T21:58:27.350Z,22.05
2019-06-07T22:01:04.690Z,22.15
2019-06-07T22:03:38.054Z,23.25
2019-06-07T22:06:09.652Z,23.45
2019-06-07T22:08:40.635Z,28.30
2019-06-07T22:11:12.301Z,23.57
2019-06-07T22:13:43.472Z,25.40
2019-06-07T22:16:26.806Z,25.57
2019-06-07T22:18:46.055Z,27.37
2019-06-07T22:21:16.315Z,27.75
2019-06-07T22:23:47.060Z,27.75
2019-06-07T22:26:17.786Z,27.05
2019-06-07T22:28:48.206Z,27.65
2019-06-07T22:31:19.256Z,26.93
2019-06-07T22:33:49.937Z,26.65
2019-06-07T22:36:20.480Z,26.25
2019-06-07T22:38:50.814Z,27.13
2019-06-07T22:41:21.028Z,28.25
2019-06-07T22:43:51.717Z,27.15
2019-06-07T22:46:36.429Z,27.73
2019-06-07T22:48:54.533Z,28.83
2019-06-07T22:51:25.378Z,26.60
2019-06-07T22:53:56.059Z,26.85
2019-06-07T22:56:28.023Z,27.87
2019-06-07T22:58:58.673Z,26.52
2019-06-07T23:01:29.133Z,26.80
2019-06-07T23:04:01.037Z,26.75
2019-06-07T23:06:31.782Z,25.32
2019-06-07T23:09:02.516Z,28.38
2019-06-07T23:11:34.323Z,26.90
2019-06-07T23:14:04.698Z,27.95
2019-06-07T23:16:35.008Z,27.70
2019-06-07T23:19:05.330Z,27.17
2019-06-07T23:21:35.939Z,27.80
2019-06-07T23:24:06.596Z,28.35
2019-06-07T23:26:36.913Z,29.65
2019-06-07T23:29:07.238Z,28.00
2019-06-07T23:31:37.472Z,29.00
2019-06-07T23:34:07.706Z,27.75
2019-06-07T23:36:38.179Z,28.10
2019-06-07T23:39:09.366Z,28.35
2019-06-07T23:41:39.657Z,28.15
2019-06-07T23:44:11.051Z,28.35
2019-06-07T23:46:41.737Z,28.45
2019-06-07T23:49:14.041Z,29.52
2019-06-07T23:51:44.680Z,27.58
2019-06-07T23:54:15.670Z,28.95
2019-06-07T23:56:46.079Z,27.05
2019-06-07T23:59:16.312Z,27.05
